sensor_id;sensor_type;location;lat;lon;timestamp;temperature;humidity
81192;DHT22;70665;47.652;-2.730;2023-06-14T00:01:43;20.60;69.70
81192;DHT22;70665;47.652;-2.730;2023-06-14T00:04:11;20.60;67.30
81192;DHT22;70665;47.652;-2.730;2023-06-14T00:06:36;20.60;68.00
81192;DHT22;70665;47.652;-2.730;2023-06-14T00:09:03;20.50;67.60
81192;DHT22;70665;47.652;-2.730;2023-06-14T00:11:33;20.50;69.90
81192;DHT22;70665;47.652;-2.730;2023-06-14T00:13:58;20.40;69.40
81192;DHT22;70665;47.652;-2.730;2023-06-14T00:16:24;20.30;68.50
81192;DHT22;70665;47.652;-2.730;2023-06-14T00:18:50;20.20;71.40
81192;DHT22;70665;47.652;-2.730;2023-06-14T00:21:18;20.20;71.60
81192;DHT22;70665;47.652;-2.730;2023-06-14T00:23:44;20.10;68.60
81192;DHT22;70665;47.652;-2.730;2023-06-14T00:26:10;20.20;69.90
81192;DHT22;70665;47.652;-2.730;2023-06-14T00:28:35;20.20;70.30
81192;DHT22;70665;47.652;-2.730;2023-06-14T00:31:01;20.10;69.40
81192;DHT22;70665;47.652;-2.730;2023-06-14T00:33:27;20.20;70.60
81192;DHT22;70665;47.652;-2.730;2023-06-14T00:35:52;20.10;69.50
81192;DHT22;70665;47.652;-2.730;2023-06-14T00:38:21;20.10;69.50
81192;DHT22;70665;47.652;-2.730;2023-06-14T00:40:47;20.20;68.50
81192;DHT22;70665;47.652;-2.730;2023-06-14T00:43:12;20.10;71.10
81192;DHT22;70665;47.652;-2.730;2023-06-14T00:45:38;20.10;68.70
81192;DHT22;70665;47.652;-2.730;2023-06-14T00:48:05;20.10;71.80
81192;DHT22;70665;47.652;-2.730;2023-06-14T00:50:32;20.00;69.50
81192;DHT22;70665;47.652;-2.730;2023-06-14T00:52:59;20.00;70.60
81192;DHT22;70665;47.652;-2.730;2023-06-14T00:55:26;20.10;69.30
81192;DHT22;70665;47.652;-2.730;2023-06-14T00:57:53;20.00;69.00
81192;DHT22;70665;47.652;-2.730;2023-06-14T01:00:19;20.00;70.20
81192;DHT22;70665;47.652;-2.730;2023-06-14T01:02:45;19.90;70.50
81192;DHT22;70665;47.652;-2.730;2023-06-14T01:05:11;19.90;72.50
81192;DHT22;70665;47.652;-2.730;2023-06-14T01:10:53;19.70;75.70
81192;DHT22;70665;47.652;-2.730;2023-06-14T01:13:27;19.80;74.70
81192;DHT22;70665;47.652;-2.730;2023-06-14T01:15:55;19.70;71.70
81192;DHT22;70665;47.652;-2.730;2023-06-14T01:18:22;19.70;71.60
81192;DHT22;70665;47.652;-2.730;2023-06-14T01:20:50;19.70;73.20
81192;DHT22;70665;47.652;-2.730;2023-06-14T01:23:19;19.70;73.40
81192;DHT22;70665;47.652;-2.730;2023-06-14T01:25:46;19.70;71.80
81192;DHT22;70665;47.652;-2.730;2023-06-14T01:28:13;19.70;71.70
81192;DHT22;70665;47.652;-2.730;2023-06-14T01:30:43;19.70;72.30
81192;DHT22;70665;47.652;-2.730;2023-06-14T01:33:17;19.80;71.60
81192;DHT22;70665;47.652;-2.730;2023-06-14T01:35:46;19.70;71.60
81192;DHT22;70665;47.652;-2.730;2023-06-14T01:38:13;19.70;72.90
81192;DHT22;70665;47.652;-2.730;2023-06-14T01:40:40;19.60;71.90
81192;DHT22;70665;47.652;-2.730;2023-06-14T01:43:06;19.70;73.20
81192;DHT22;70665;47.652;-2.730;2023-06-14T01:45:33;19.60;73.10
81192;DHT22;70665;47.652;-2.730;2023-06-14T01:47:59;19.60;73.60
81192;DHT22;70665;47.652;-2.730;2023-06-14T01:50:29;19.60;74.80
81192;DHT22;70665;47.652;-2.730;2023-06-14T01:52:55;19.60;72.80
81192;DHT22;70665;47.652;-2.730;2023-06-14T01:55:21;19.50;74.40
81192;DHT22;70665;47.652;-2.730;2023-06-14T01:57:47;19.50;74.50
81192;DHT22;70665;47.652;-2.730;2023-06-14T02:00:13;19.50;77.60
81192;DHT22;70665;47.652;-2.730;2023-06-14T02:02:40;19.30;76.00
81192;DHT22;70665;47.652;-2.730;2023-06-14T02:05:06;19.30;76.80
81192;DHT22;70665;47.652;-2.730;2023-06-14T02:07:33;19.20;74.40
81192;DHT22;70665;47.652;-2.730;2023-06-14T02:09:59;19.30;76.70
81192;DHT22;70665;47.652;-2.730;2023-06-14T02:12:24;19.20;75.30
81192;DHT22;70665;47.652;-2.730;2023-06-14T02:14:51;19.20;76.40
81192;DHT22;70665;47.652;-2.730;2023-06-14T02:17:16;19.20;73.30
81192;DHT22;70665;47.652;-2.730;2023-06-14T02:19:42;19.20;77.70
81192;DHT22;70665;47.652;-2.730;2023-06-14T02:22:08;19.20;75.20
81192;DHT22;70665;47.652;-2.730;2023-06-14T02:24:34;19.20;78.60
81192;DHT22;70665;47.652;-2.730;2023-06-14T02:27:01;19.10;76.70
81192;DHT22;70665;47.652;-2.730;2023-06-14T02:29:27;19.10;75.20
81192;DHT22;70665;47.652;-2.730;2023-06-14T02:31:53;19.00;73.90
81192;DHT22;70665;47.652;-2.730;2023-06-14T02:34:18;19.10;74.80
81192;DHT22;70665;47.652;-2.730;2023-06-14T02:36:45;19.10;75.00
81192;DHT22;70665;47.652;-2.730;2023-06-14T02:39:13;19.10;74.80
81192;DHT22;70665;47.652;-2.730;2023-06-14T02:41:39;19.10;76.20
81192;DHT22;70665;47.652;-2.730;2023-06-14T02:44:04;19.00;78.40
81192;DHT22;70665;47.652;-2.730;2023-06-14T02:46:30;19.00;75.70
81192;DHT22;70665;47.652;-2.730;2023-06-14T02:48:56;18.90;78.60
81192;DHT22;70665;47.652;-2.730;2023-06-14T02:51:22;18.90;76.40
81192;DHT22;70665;47.652;-2.730;2023-06-14T02:53:47;18.90;78.90
81192;DHT22;70665;47.652;-2.730;2023-06-14T02:56:13;18.90;76.40
81192;DHT22;70665;47.652;-2.730;2023-06-14T02:58:38;18.90;78.20
81192;DHT22;70665;47.652;-2.730;2023-06-14T03:01:05;18.90;76.40
81192;DHT22;70665;47.652;-2.730;2023-06-14T03:03:33;18.90;75.80
81192;DHT22;70665;47.652;-2.730;2023-06-14T03:05:59;18.80;74.90
81192;DHT22;70665;47.652;-2.730;2023-06-14T03:08:30;18.90;74.60
81192;DHT22;70665;47.652;-2.730;2023-06-14T03:10:57;18.80;75.40
81192;DHT22;70665;47.652;-2.730;2023-06-14T03:13:23;18.90;74.80
81192;DHT22;70665;47.652;-2.730;2023-06-14T03:15:49;18.80;75.40
81192;DHT22;70665;47.652;-2.730;2023-06-14T03:18:17;18.80;74.60
81192;DHT22;70665;47.652;-2.730;2023-06-14T03:20:44;18.90;74.40
81192;DHT22;70665;47.652;-2.730;2023-06-14T03:23:11;18.90;75.50
81192;DHT22;70665;47.652;-2.730;2023-06-14T03:25:37;18.90;75.60
81192;DHT22;70665;47.652;-2.730;2023-06-14T03:28:04;18.90;75.80
81192;DHT22;70665;47.652;-2.730;2023-06-14T03:30:31;18.80;76.00
81192;DHT22;70665;47.652;-2.730;2023-06-14T03:32:57;18.90;74.90
81192;DHT22;70665;47.652;-2.730;2023-06-14T03:35:23;18.80;75.60
81192;DHT22;70665;47.652;-2.730;2023-06-14T03:37:49;18.70;74.60
81192;DHT22;70665;47.652;-2.730;2023-06-14T03:40:17;18.70;75.50
81192;DHT22;70665;47.652;-2.730;2023-06-14T03:42:43;18.70;76.20
81192;DHT22;70665;47.652;-2.730;2023-06-14T03:45:09;18.70;76.10
81192;DHT22;70665;47.652;-2.730;2023-06-14T03:47:35;18.70;75.60
81192;DHT22;70665;47.652;-2.730;2023-06-14T03:50:04;18.60;77.30
81192;DHT22;70665;47.652;-2.730;2023-06-14T03:52:31;18.70;75.60
81192;DHT22;70665;47.652;-2.730;2023-06-14T03:54:56;18.70;75.90
81192;DHT22;70665;47.652;-2.730;2023-06-14T03:57:23;18.60;77.70
81192;DHT22;70665;47.652;-2.730;2023-06-14T03:59:49;18.60;76.50
81192;DHT22;70665;47.652;-2.730;2023-06-14T04:02:15;18.60;76.00
81192;DHT22;70665;47.652;-2.730;2023-06-14T04:04:42;18.60;75.70
81192;DHT22;70665;47.652;-2.730;2023-06-14T04:07:13;18.60;76.80
81192;DHT22;70665;47.652;-2.730;2023-06-14T04:09:39;18.60;75.10
81192;DHT22;70665;47.652;-2.730;2023-06-14T04:12:06;18.50;75.70
81192;DHT22;70665;47.652;-2.730;2023-06-14T04:14:31;18.50;77.00
81192;DHT22;70665;47.652;-2.730;2023-06-14T04:17:00;18.50;75.90
81192;DHT22;70665;47.652;-2.730;2023-06-14T04:19:26;18.40;76.60
81192;DHT22;70665;47.652;-2.730;2023-06-14T04:21:52;18.50;75.70
81192;DHT22;70665;47.652;-2.730;2023-06-14T04:24:18;18.40;75.20
81192;DHT22;70665;47.652;-2.730;2023-06-14T04:26:44;18.50;76.20
81192;DHT22;70665;47.652;-2.730;2023-06-14T04:29:11;18.40;76.60
81192;DHT22;70665;47.652;-2.730;2023-06-14T04:31:40;18.50;74.90
81192;DHT22;70665;47.652;-2.730;2023-06-14T04:34:05;18.50;76.90
81192;DHT22;70665;47.652;-2.730;2023-06-14T04:36:32;18.40;78.70
81192;DHT22;70665;47.652;-2.730;2023-06-14T04:39:00;18.50;77.30
81192;DHT22;70665;47.652;-2.730;2023-06-14T04:41:26;18.50;76.50
81192;DHT22;70665;47.652;-2.730;2023-06-14T04:44:00;18.40;77.40
81192;DHT22;70665;47.652;-2.730;2023-06-14T04:46:30;18.50;77.80
81192;DHT22;70665;47.652;-2.730;2023-06-14T04:48:57;18.50;76.20
81192;DHT22;70665;47.652;-2.730;2023-06-14T04:51:28;18.60;75.90
81192;DHT22;70665;47.652;-2.730;2023-06-14T04:53:58;18.50;77.30
81192;DHT22;70665;47.652;-2.730;2023-06-14T04:56:24;18.60;76.60
81192;DHT22;70665;47.652;-2.730;2023-06-14T04:58:51;18.60;75.80
81192;DHT22;70665;47.652;-2.730;2023-06-14T05:01:18;18.60;75.70
81192;DHT22;70665;47.652;-2.730;2023-06-14T05:03:44;18.70;78.30
81192;DHT22;70665;47.652;-2.730;2023-06-14T05:06:14;18.70;77.20
81192;DHT22;70665;47.652;-2.730;2023-06-14T05:08:40;18.70;76.50
81192;DHT22;70665;47.652;-2.730;2023-06-14T05:11:05;18.80;78.40
81192;DHT22;70665;47.652;-2.730;2023-06-14T05:13:31;18.80;76.70
81192;DHT22;70665;47.652;-2.730;2023-06-14T05:15:58;18.80;75.00
81192;DHT22;70665;47.652;-2.730;2023-06-14T05:18:24;18.80;75.10
81192;DHT22;70665;47.652;-2.730;2023-06-14T05:20:51;18.90;74.90
81192;DHT22;70665;47.652;-2.730;2023-06-14T05:23:16;18.90;75.00
81192;DHT22;70665;47.652;-2.730;2023-06-14T05:25:43;19.10;78.40
81192;DHT22;70665;47.652;-2.730;2023-06-14T05:28:09;19.20;73.60
81192;DHT22;70665;47.652;-2.730;2023-06-14T05:30:34;19.30;77.30
81192;DHT22;70665;47.652;-2.730;2023-06-14T05:33:00;19.30;73.20
81192;DHT22;70665;47.652;-2.730;2023-06-14T05:35:25;19.40;76.90
81192;DHT22;70665;47.652;-2.730;2023-06-14T05:37:52;19.50;73.30
81192;DHT22;70665;47.652;-2.730;2023-06-14T05:40:19;19.60;73.20
81192;DHT22;70665;47.652;-2.730;2023-06-14T05:42:45;19.60;73.80
81192;DHT22;70665;47.652;-2.730;2023-06-14T05:45:11;19.70;73.60
81192;DHT22;70665;47.652;-2.730;2023-06-14T05:47:36;19.70;72.10
81192;DHT22;70665;47.652;-2.730;2023-06-14T05:50:02;19.80;72.00
81192;DHT22;70665;47.652;-2.730;2023-06-14T05:52:28;19.90;72.50
81192;DHT22;70665;47.652;-2.730;2023-06-14T05:54:55;19.90;72.60
81192;DHT22;70665;47.652;-2.730;2023-06-14T05:57:20;20.00;71.60
81192;DHT22;70665;47.652;-2.730;2023-06-14T05:59:46;20.10;71.80
81192;DHT22;70665;47.652;-2.730;2023-06-14T06:02:12;20.00;71.60
81192;DHT22;70665;47.652;-2.730;2023-06-14T06:04:37;20.10;71.90
81192;DHT22;70665;47.652;-2.730;2023-06-14T06:07:03;20.20;72.70
81192;DHT22;70665;47.652;-2.730;2023-06-14T06:09:29;20.20;74.60
81192;DHT22;70665;47.652;-2.730;2023-06-14T06:11:55;20.20;72.90
81192;DHT22;70665;47.652;-2.730;2023-06-14T06:14:21;20.30;72.00
81192;DHT22;70665;47.652;-2.730;2023-06-14T06:16:46;20.40;71.00
81192;DHT22;70665;47.652;-2.730;2023-06-14T06:19:12;20.50;70.90
81192;DHT22;70665;47.652;-2.730;2023-06-14T06:21:38;20.60;70.90
81192;DHT22;70665;47.652;-2.730;2023-06-14T06:24:05;20.70;72.80
81192;DHT22;70665;47.652;-2.730;2023-06-14T06:26:31;20.70;70.50
81192;DHT22;70665;47.652;-2.730;2023-06-14T06:28:57;20.70;70.90
81192;DHT22;70665;47.652;-2.730;2023-06-14T06:31:24;20.80;70.30
81192;DHT22;70665;47.652;-2.730;2023-06-14T06:33:49;21.00;71.90
81192;DHT22;70665;47.652;-2.730;2023-06-14T06:36:15;21.00;70.50
81192;DHT22;70665;47.652;-2.730;2023-06-14T06:38:41;21.10;69.90
81192;DHT22;70665;47.652;-2.730;2023-06-14T06:41:07;21.20;69.50
81192;DHT22;70665;47.652;-2.730;2023-06-14T06:43:33;21.30;68.90
81192;DHT22;70665;47.652;-2.730;2023-06-14T06:45:58;21.40;69.30
81192;DHT22;70665;47.652;-2.730;2023-06-14T06:48:24;21.50;68.40
81192;DHT22;70665;47.652;-2.730;2023-06-14T06:50:50;21.60;69.60
81192;DHT22;70665;47.652;-2.730;2023-06-14T06:53:16;21.70;67.90
81192;DHT22;70665;47.652;-2.730;2023-06-14T06:55:44;21.90;69.40
81192;DHT22;70665;47.652;-2.730;2023-06-14T06:58:09;21.90;67.60
81192;DHT22;70665;47.652;-2.730;2023-06-14T07:00:35;22.00;67.70
81192;DHT22;70665;47.652;-2.730;2023-06-14T07:03:00;22.10;67.20
81192;DHT22;70665;47.652;-2.730;2023-06-14T07:05:26;22.20;67.20
81192;DHT22;70665;47.652;-2.730;2023-06-14T07:07:52;22.20;67.00
81192;DHT22;70665;47.652;-2.730;2023-06-14T07:10:18;22.30;66.90
81192;DHT22;70665;47.652;-2.730;2023-06-14T07:12:44;22.50;66.70
81192;DHT22;70665;47.652;-2.730;2023-06-14T07:15:10;22.50;66.80
81192;DHT22;70665;47.652;-2.730;2023-06-14T07:17:36;22.60;66.10
81192;DHT22;70665;47.652;-2.730;2023-06-14T07:20:03;22.70;66.20
81192;DHT22;70665;47.652;-2.730;2023-06-14T07:22:33;22.70;66.40
81192;DHT22;70665;47.652;-2.730;2023-06-14T07:24:59;22.90;65.70
81192;DHT22;70665;47.652;-2.730;2023-06-14T07:27:24;22.90;65.60
81192;DHT22;70665;47.652;-2.730;2023-06-14T07:29:50;23.00;65.50
81192;DHT22;70665;47.652;-2.730;2023-06-14T07:32:15;23.00;64.80
81192;DHT22;70665;47.652;-2.730;2023-06-14T07:34:41;23.20;65.30
81192;DHT22;70665;47.652;-2.730;2023-06-14T07:37:07;23.20;65.40
81192;DHT22;70665;47.652;-2.730;2023-06-14T07:39:32;23.20;65.10
81192;DHT22;70665;47.652;-2.730;2023-06-14T07:41:58;23.30;64.90
81192;DHT22;70665;47.652;-2.730;2023-06-14T07:44:24;23.30;64.90
81192;DHT22;70665;47.652;-2.730;2023-06-14T07:46:49;23.40;64.20
81192;DHT22;70665;47.652;-2.730;2023-06-14T07:49:15;23.40;64.20
81192;DHT22;70665;47.652;-2.730;2023-06-14T07:51:41;23.60;64.90
81192;DHT22;70665;47.652;-2.730;2023-06-14T07:54:06;23.70;64.70
81192;DHT22;70665;47.652;-2.730;2023-06-14T07:56:34;23.70;64.50
81192;DHT22;70665;47.652;-2.730;2023-06-14T07:59:01;23.70;64.60
81192;DHT22;70665;47.652;-2.730;2023-06-14T08:01:26;23.80;65.20
81192;DHT22;70665;47.652;-2.730;2023-06-14T08:03:53;23.80;64.10
81192;DHT22;70665;47.652;-2.730;2023-06-14T08:06:19;23.80;63.90
81192;DHT22;70665;47.652;-2.730;2023-06-14T08:08:44;23.90;64.20
81192;DHT22;70665;47.652;-2.730;2023-06-14T08:11:10;23.90;63.90
81192;DHT22;70665;47.652;-2.730;2023-06-14T08:13:35;23.90;64.90
81192;DHT22;70665;47.652;-2.730;2023-06-14T08:16:01;23.90;64.10
81192;DHT22;70665;47.652;-2.730;2023-06-14T08:18:29;23.90;63.40
81192;DHT22;70665;47.652;-2.730;2023-06-14T08:20:55;24.10;63.30
81192;DHT22;70665;47.652;-2.730;2023-06-14T08:23:23;24.10;63.40
81192;DHT22;70665;47.652;-2.730;2023-06-14T08:25:48;24.30;63.20
81192;DHT22;70665;47.652;-2.730;2023-06-14T08:28:14;24.50;63.20
81192;DHT22;70665;47.652;-2.730;2023-06-14T08:30:42;24.50;63.40
81192;DHT22;70665;47.652;-2.730;2023-06-14T08:33:08;24.60;62.30
81192;DHT22;70665;47.652;-2.730;2023-06-14T08:35:33;24.60;62.40
81192;DHT22;70665;47.652;-2.730;2023-06-14T08:38:02;24.70;62.10
81192;DHT22;70665;47.652;-2.730;2023-06-14T08:40:30;24.70;62.40
81192;DHT22;70665;47.652;-2.730;2023-06-14T08:42:55;24.80;63.00
81192;DHT22;70665;47.652;-2.730;2023-06-14T08:45:22;24.90;62.10
81192;DHT22;70665;47.652;-2.730;2023-06-14T08:47:50;25.00;61.70
81192;DHT22;70665;47.652;-2.730;2023-06-14T08:50:23;25.10;62.10
81192;DHT22;70665;47.652;-2.730;2023-06-14T08:52:55;25.20;61.30
81192;DHT22;70665;47.652;-2.730;2023-06-14T08:55:23;25.20;61.30
81192;DHT22;70665;47.652;-2.730;2023-06-14T08:57:51;25.20;61.20
81192;DHT22;70665;47.652;-2.730;2023-06-14T09:00:19;25.20;61.70
81192;DHT22;70665;47.652;-2.730;2023-06-14T09:02:46;25.40;61.40
81192;DHT22;70665;47.652;-2.730;2023-06-14T09:05:12;25.50;61.60
81192;DHT22;70665;47.652;-2.730;2023-06-14T09:07:44;25.50;61.50
81192;DHT22;70665;47.652;-2.730;2023-06-14T09:10:13;25.70;61.80
81192;DHT22;70665;47.652;-2.730;2023-06-14T09:12:39;25.80;60.70
81192;DHT22;70665;47.652;-2.730;2023-06-14T09:15:06;25.80;60.80
81192;DHT22;70665;47.652;-2.730;2023-06-14T09:17:34;25.80;59.50
81192;DHT22;70665;47.652;-2.730;2023-06-14T09:20:02;26.10;60.60
81192;DHT22;70665;47.652;-2.730;2023-06-14T09:22:31;26.10;59.60
81192;DHT22;70665;47.652;-2.730;2023-06-14T09:24:57;26.20;60.50
81192;DHT22;70665;47.652;-2.730;2023-06-14T09:27:22;26.30;59.20
81192;DHT22;70665;47.652;-2.730;2023-06-14T09:29:48;26.50;58.80
81192;DHT22;70665;47.652;-2.730;2023-06-14T09:32:14;26.60;58.70
81192;DHT22;70665;47.652;-2.730;2023-06-14T09:34:40;26.60;58.80
81192;DHT22;70665;47.652;-2.730;2023-06-14T09:37:06;26.70;58.90
81192;DHT22;70665;47.652;-2.730;2023-06-14T09:39:31;26.80;58.70
81192;DHT22;70665;47.652;-2.730;2023-06-14T09:41:57;26.90;58.30
81192;DHT22;70665;47.652;-2.730;2023-06-14T09:44:23;26.90;57.70
81192;DHT22;70665;47.652;-2.730;2023-06-14T09:46:55;27.00;58.00
81192;DHT22;70665;47.652;-2.730;2023-06-14T09:49:21;27.10;57.40
81192;DHT22;70665;47.652;-2.730;2023-06-14T09:51:50;27.20;57.90
81192;DHT22;70665;47.652;-2.730;2023-06-14T09:54:20;27.30;58.10
81192;DHT22;70665;47.652;-2.730;2023-06-14T09:56:48;27.50;58.50
81192;DHT22;70665;47.652;-2.730;2023-06-14T09:59:19;27.60;58.20
81192;DHT22;70665;47.652;-2.730;2023-06-14T10:01:47;27.70;58.00
81192;DHT22;70665;47.652;-2.730;2023-06-14T10:04:15;27.70;57.10
81192;DHT22;70665;47.652;-2.730;2023-06-14T10:06:45;27.70;56.20
81192;DHT22;70665;47.652;-2.730;2023-06-14T10:09:12;27.70;57.20
81192;DHT22;70665;47.652;-2.730;2023-06-14T10:11:38;27.90;57.50
81192;DHT22;70665;47.652;-2.730;2023-06-14T10:14:10;28.10;55.90
81192;DHT22;70665;47.652;-2.730;2023-06-14T10:16:45;28.20;56.30
81192;DHT22;70665;47.652;-2.730;2023-06-14T10:19:24;28.20;56.40
81192;DHT22;70665;47.652;-2.730;2023-06-14T10:22:09;28.50;55.80
81192;DHT22;70665;47.652;-2.730;2023-06-14T10:24:43;28.60;56.20
81192;DHT22;70665;47.652;-2.730;2023-06-14T10:27:13;28.60;57.30
81192;DHT22;70665;47.652;-2.730;2023-06-14T10:32:24;28.70;54.20
81192;DHT22;70665;47.652;-2.730;2023-06-14T10:34:58;28.60;55.30
81192;DHT22;70665;47.652;-2.730;2023-06-14T10:37:24;28.80;54.10
81192;DHT22;70665;47.652;-2.730;2023-06-14T10:39:50;29.00;54.80
81192;DHT22;70665;47.652;-2.730;2023-06-14T10:42:16;29.20;56.30
81192;DHT22;70665;47.652;-2.730;2023-06-14T10:47:31;29.40;54.10
81192;DHT22;70665;47.652;-2.730;2023-06-14T10:50:05;29.50;53.30
81192;DHT22;70665;47.652;-2.730;2023-06-14T10:52:34;29.50;53.90
81192;DHT22;70665;47.652;-2.730;2023-06-14T10:57:35;29.70;53.20
81192;DHT22;70665;47.652;-2.730;2023-06-14T11:00:03;29.80;53.60
81192;DHT22;70665;47.652;-2.730;2023-06-14T11:03:17;29.80;52.20
81192;DHT22;70665;47.652;-2.730;2023-06-14T11:11:22;30.00;52.80
81192;DHT22;70665;47.652;-2.730;2023-06-14T11:13:49;30.00;54.00
81192;DHT22;70665;47.652;-2.730;2023-06-14T11:16:17;30.00;55.30
81192;DHT22;70665;47.652;-2.730;2023-06-14T11:18:44;29.90;55.70
81192;DHT22;70665;47.652;-2.730;2023-06-14T11:21:11;29.80;56.20
81192;DHT22;70665;47.652;-2.730;2023-06-14T11:23:37;29.70;56.80
81192;DHT22;70665;47.652;-2.730;2023-06-14T11:26:03;29.80;56.50
81192;DHT22;70665;47.652;-2.730;2023-06-14T11:28:37;29.80;56.70
81192;DHT22;70665;47.652;-2.730;2023-06-14T11:31:03;29.70;57.00
81192;DHT22;70665;47.652;-2.730;2023-06-14T11:33:29;29.90;56.10
81192;DHT22;70665;47.652;-2.730;2023-06-14T11:35:55;29.50;55.90
81192;DHT22;70665;47.652;-2.730;2023-06-14T11:38:21;29.60;56.40
81192;DHT22;70665;47.652;-2.730;2023-06-14T11:40:46;29.80;57.40
81192;DHT22;70665;47.652;-2.730;2023-06-14T11:43:12;29.70;56.90
81192;DHT22;70665;47.652;-2.730;2023-06-14T11:45:39;29.50;57.20
81192;DHT22;70665;47.652;-2.730;2023-06-14T11:48:06;29.60;56.80
81192;DHT22;70665;47.652;-2.730;2023-06-14T11:50:32;29.60;57.80
81192;DHT22;70665;47.652;-2.730;2023-06-14T11:53:02;29.60;57.00
81192;DHT22;70665;47.652;-2.730;2023-06-14T11:55:39;29.60;57.70
81192;DHT22;70665;47.652;-2.730;2023-06-14T11:58:06;29.80;57.30
81192;DHT22;70665;47.652;-2.730;2023-06-14T12:00:32;29.60;58.00
81192;DHT22;70665;47.652;-2.730;2023-06-14T12:02:58;29.50;57.20
81192;DHT22;70665;47.652;-2.730;2023-06-14T12:05:25;29.50;57.30
81192;DHT22;70665;47.652;-2.730;2023-06-14T12:07:58;29.40;56.70
81192;DHT22;70665;47.652;-2.730;2023-06-14T12:10:25;29.60;56.20
81192;DHT22;70665;47.652;-2.730;2023-06-14T12:12:51;29.70;56.40
81192;DHT22;70665;47.652;-2.730;2023-06-14T12:15:16;29.70;55.90
81192;DHT22;70665;47.652;-2.730;2023-06-14T12:17:42;29.60;56.30
81192;DHT22;70665;47.652;-2.730;2023-06-14T12:20:09;29.60;55.90
81192;DHT22;70665;47.652;-2.730;2023-06-14T12:22:46;29.60;55.90
81192;DHT22;70665;47.652;-2.730;2023-06-14T12:25:24;29.70;54.70
81192;DHT22;70665;47.652;-2.730;2023-06-14T12:27:53;29.70;55.20
81192;DHT22;70665;47.652;-2.730;2023-06-14T12:30:19;29.80;55.30
81192;DHT22;70665;47.652;-2.730;2023-06-14T12:32:45;29.90;54.60
81192;DHT22;70665;47.652;-2.730;2023-06-14T12:35:11;30.00;54.10
81192;DHT22;70665;47.652;-2.730;2023-06-14T12:37:36;30.20;54.60
81192;DHT22;70665;47.652;-2.730;2023-06-14T12:40:02;30.20;53.90
81192;DHT22;70665;47.652;-2.730;2023-06-14T12:42:32;30.10;54.10
81192;DHT22;70665;47.652;-2.730;2023-06-14T12:44:59;30.20;53.80
81192;DHT22;70665;47.652;-2.730;2023-06-14T12:47:25;30.10;53.90
81192;DHT22;70665;47.652;-2.730;2023-06-14T12:49:50;30.00;54.00
81192;DHT22;70665;47.652;-2.730;2023-06-14T12:52:16;30.20;54.30
81192;DHT22;70665;47.652;-2.730;2023-06-14T12:54:42;30.60;54.30
81192;DHT22;70665;47.652;-2.730;2023-06-14T12:57:08;30.80;53.30
81192;DHT22;70665;47.652;-2.730;2023-06-14T12:59:35;31.20;52.50
81192;DHT22;70665;47.652;-2.730;2023-06-14T13:02:14;31.50;52.60
81192;DHT22;70665;47.652;-2.730;2023-06-14T13:04:40;31.50;52.40
81192;DHT22;70665;47.652;-2.730;2023-06-14T13:07:06;31.90;53.30
81192;DHT22;70665;47.652;-2.730;2023-06-14T13:09:31;31.90;52.50
81192;DHT22;70665;47.652;-2.730;2023-06-14T13:11:57;32.00;53.50
81192;DHT22;70665;47.652;-2.730;2023-06-14T13:14:23;32.50;52.40
81192;DHT22;70665;47.652;-2.730;2023-06-14T13:16:48;32.80;52.70
81192;DHT22;70665;47.652;-2.730;2023-06-14T13:19:14;32.70;51.80
81192;DHT22;70665;47.652;-2.730;2023-06-14T13:21:40;32.90;52.50
81192;DHT22;70665;47.652;-2.730;2023-06-14T13:24:05;32.70;52.70
81192;DHT22;70665;47.652;-2.730;2023-06-14T13:26:32;32.70;52.40
81192;DHT22;70665;47.652;-2.730;2023-06-14T13:28:59;32.60;52.90
81192;DHT22;70665;47.652;-2.730;2023-06-14T13:31:25;33.20;52.70
81192;DHT22;70665;47.652;-2.730;2023-06-14T13:33:50;33.30;51.70
81192;DHT22;70665;47.652;-2.730;2023-06-14T13:36:16;33.20;51.30
81192;DHT22;70665;47.652;-2.730;2023-06-14T13:38:42;33.20;51.30
81192;DHT22;70665;47.652;-2.730;2023-06-14T13:41:08;33.70;50.90
81192;DHT22;70665;47.652;-2.730;2023-06-14T13:43:33;33.90;50.70
81192;DHT22;70665;47.652;-2.730;2023-06-14T13:45:59;34.00;50.10
81192;DHT22;70665;47.652;-2.730;2023-06-14T13:48:25;34.00;49.70
81192;DHT22;70665;47.652;-2.730;2023-06-14T13:50:51;33.50;50.30
81192;DHT22;70665;47.652;-2.730;2023-06-14T13:53:17;33.50;51.00
81192;DHT22;70665;47.652;-2.730;2023-06-14T13:55:43;33.70;51.20
81192;DHT22;70665;47.652;-2.730;2023-06-14T13:58:08;33.90;50.70
81192;DHT22;70665;47.652;-2.730;2023-06-14T14:00:34;34.20;50.10
81192;DHT22;70665;47.652;-2.730;2023-06-14T14:03:02;34.00;50.10
81192;DHT22;70665;47.652;-2.730;2023-06-14T14:05:28;34.20;51.00
81192;DHT22;70665;47.652;-2.730;2023-06-14T14:07:56;34.80;50.80
81192;DHT22;70665;47.652;-2.730;2023-06-14T14:10:23;35.30;49.10
81192;DHT22;70665;47.652;-2.730;2023-06-14T14:12:49;34.50;49.10
81192;DHT22;70665;47.652;-2.730;2023-06-14T14:15:14;34.40;49.50
81192;DHT22;70665;47.652;-2.730;2023-06-14T14:17:41;34.20;49.40
81192;DHT22;70665;47.652;-2.730;2023-06-14T14:20:07;34.60;49.50
81192;DHT22;70665;47.652;-2.730;2023-06-14T14:22:33;34.70;49.00
81192;DHT22;70665;47.652;-2.730;2023-06-14T14:24:58;35.20;49.20
81192;DHT22;70665;47.652;-2.730;2023-06-14T14:27:24;35.10;50.30
81192;DHT22;70665;47.652;-2.730;2023-06-14T14:29:49;35.40;47.80
81192;DHT22;70665;47.652;-2.730;2023-06-14T14:32:15;35.80;47.90
81192;DHT22;70665;47.652;-2.730;2023-06-14T14:34:41;35.60;47.30
81192;DHT22;70665;47.652;-2.730;2023-06-14T14:37:06;34.80;48.80
81192;DHT22;70665;47.652;-2.730;2023-06-14T14:39:32;33.90;50.50
81192;DHT22;70665;47.652;-2.730;2023-06-14T14:41:58;33.60;51.10
81192;DHT22;70665;47.652;-2.730;2023-06-14T14:44:24;34.40;49.60
81192;DHT22;70665;47.652;-2.730;2023-06-14T14:46:49;35.10;48.30
81192;DHT22;70665;47.652;-2.730;2023-06-14T14:49:15;35.60;48.40
81192;DHT22;70665;47.652;-2.730;2023-06-14T14:51:42;35.70;47.80
81192;DHT22;70665;47.652;-2.730;2023-06-14T14:54:09;35.90;47.30
81192;DHT22;70665;47.652;-2.730;2023-06-14T14:56:36;36.00;48.60
81192;DHT22;70665;47.652;-2.730;2023-06-14T14:59:04;36.30;47.40
81192;DHT22;70665;47.652;-2.730;2023-06-14T15:01:31;35.50;48.80
81192;DHT22;70665;47.652;-2.730;2023-06-14T15:03:58;34.50;51.10
81192;DHT22;70665;47.652;-2.730;2023-06-14T15:06:25;33.50;52.20
81192;DHT22;70665;47.652;-2.730;2023-06-14T15:08:52;33.70;51.40
81192;DHT22;70665;47.652;-2.730;2023-06-14T15:11:19;34.40;50.20
81192;DHT22;70665;47.652;-2.730;2023-06-14T15:13:47;34.40;50.60
81192;DHT22;70665;47.652;-2.730;2023-06-14T15:16:15;33.50;51.70
81192;DHT22;70665;47.652;-2.730;2023-06-14T15:18:42;33.50;52.00
81192;DHT22;70665;47.652;-2.730;2023-06-14T15:21:09;33.00;52.90
81192;DHT22;70665;47.652;-2.730;2023-06-14T15:23:36;32.80;53.80
81192;DHT22;70665;47.652;-2.730;2023-06-14T15:26:02;32.60;53.50
81192;DHT22;70665;47.652;-2.730;2023-06-14T15:28:29;33.50;53.10
81192;DHT22;70665;47.652;-2.730;2023-06-14T15:30:59;34.10;51.10